sensor_id;sensor_type;location;lat;lon;timestamp;P1;durP1;ratioP1;P2;durP2;ratioP2
1721;SDS011;858;53.190;8.596;2023-02-24T00:01:37;6.88;;;2.40;;
1721;SDS011;858;53.190;8.596;2023-02-24T00:04:05;12.63;;;2.58;;
1721;SDS011;858;53.190;8.596;2023-02-24T00:06:32;15.43;;;2.97;;
1721;SDS011;858;53.190;8.596;2023-02-24T00:09:01;9.05;;;2.40;;
1721;SDS011;858;53.190;8.596;2023-02-24T00:11:35;9.13;;;2.50;;
1721;SDS011;858;53.190;8.596;2023-02-24T00:14:03;12.05;;;2.42;;
1721;SDS011;858;53.190;8.596;2023-02-24T00:16:30;11.48;;;2.40;;
1721;SDS011;858;53.190;8.596;2023-02-24T00:18:56;7.30;;;2.50;;
1721;SDS011;858;53.190;8.596;2023-02-24T00:21:23;8.35;;;2.55;;
1721;SDS011;858;53.190;8.596;2023-02-24T00:23:50;9.20;;;2.33;;
1721;SDS011;858;53.190;8.596;2023-02-24T00:26:17;8.70;;;2.00;;
1721;SDS011;858;53.190;8.596;2023-02-24T00:28:45;11.25;;;2.40;;
1721;SDS011;858;53.190;8.596;2023-02-24T00:31:12;9.98;;;2.95;;
1721;SDS011;858;53.190;8.596;2023-02-24T00:33:40;6.60;;;2.50;;
1721;SDS011;858;53.190;8.596;2023-02-24T00:36:07;8.80;;;3.13;;
1721;SDS011;858;53.190;8.596;2023-02-24T00:38:35;8.13;;;2.20;;
1721;SDS011;858;53.190;8.596;2023-02-24T00:41:10;12.32;;;2.80;;
1721;SDS011;858;53.190;8.596;2023-02-24T00:43:38;4.85;;;2.13;;
1721;SDS011;858;53.190;8.596;2023-02-24T00:46:06;9.10;;;2.50;;
1721;SDS011;858;53.190;8.596;2023-02-24T00:48:36;12.35;;;2.60;;
1721;SDS011;858;53.190;8.596;2023-02-24T00:51:04;10.00;;;2.70;;
1721;SDS011;858;53.190;8.596;2023-02-24T00:53:31;7.20;;;3.00;;
1721;SDS011;858;53.190;8.596;2023-02-24T00:55:58;9.17;;;2.93;;
1721;SDS011;858;53.190;8.596;2023-02-24T00:58:26;9.27;;;2.60;;
1721;SDS011;858;53.190;8.596;2023-02-24T01:00:53;14.30;;;3.15;;
1721;SDS011;858;53.190;8.596;2023-02-24T01:03:23;13.30;;;3.08;;
1721;SDS011;858;53.190;8.596;2023-02-24T01:05:50;6.50;;;2.40;;
1721;SDS011;858;53.190;8.596;2023-02-24T01:08:17;8.82;;;2.40;;
1721;SDS011;858;53.190;8.596;2023-02-24T01:10:47;9.95;;;2.70;;
1721;SDS011;858;53.190;8.596;2023-02-24T01:13:39;10.03;;;3.20;;
1721;SDS011;858;53.190;8.596;2023-02-24T01:16:04;8.07;;;2.90;;
1721;SDS011;858;53.190;8.596;2023-02-24T01:18:32;12.32;;;2.60;;
1721;SDS011;858;53.190;8.596;2023-02-24T01:20:59;8.13;;;2.83;;
1721;SDS011;858;53.190;8.596;2023-02-24T01:23:25;7.72;;;2.20;;
1721;SDS011;858;53.190;8.596;2023-02-24T01:25:51;10.87;;;2.60;;
1721;SDS011;858;53.190;8.596;2023-02-24T01:28:23;11.43;;;2.22;;
1721;SDS011;858;53.190;8.596;2023-02-24T01:30:50;8.23;;;1.98;;
1721;SDS011;858;53.190;8.596;2023-02-24T01:33:16;7.95;;;2.33;;
1721;SDS011;858;53.190;8.596;2023-02-24T01:35:44;10.17;;;2.90;;
1721;SDS011;858;53.190;8.596;2023-02-24T01:38:10;6.17;;;2.00;;
1721;SDS011;858;53.190;8.596;2023-02-24T01:40:37;6.88;;;2.20;;
1721;SDS011;858;53.190;8.596;2023-02-24T01:43:04;5.85;;;1.58;;
1721;SDS011;858;53.190;8.596;2023-02-24T01:45:33;8.25;;;2.00;;
1721;SDS011;858;53.190;8.596;2023-02-24T01:48:04;7.05;;;2.33;;
1721;SDS011;858;53.190;8.596;2023-02-24T01:50:31;7.97;;;2.78;;
1721;SDS011;858;53.190;8.596;2023-02-24T01:53:01;7.57;;;2.10;;
1721;SDS011;858;53.190;8.596;2023-02-24T01:55:30;5.87;;;1.87;;
1721;SDS011;858;53.190;8.596;2023-02-24T01:57:57;5.97;;;1.83;;
1721;SDS011;858;53.190;8.596;2023-02-24T02:00:25;6.30;;;2.00;;
1721;SDS011;858;53.190;8.596;2023-02-24T02:03:10;6.82;;;2.28;;
1721;SDS011;858;53.190;8.596;2023-02-24T02:05:39;7.78;;;2.45;;
1721;SDS011;858;53.190;8.596;2023-02-24T02:08:08;8.77;;;2.53;;
1721;SDS011;858;53.190;8.596;2023-02-24T02:10:35;5.32;;;1.90;;
1721;SDS011;858;53.190;8.596;2023-02-24T02:13:03;6.70;;;2.20;;
1721;SDS011;858;53.190;8.596;2023-02-24T02:15:30;5.90;;;2.17;;
1721;SDS011;858;53.190;8.596;2023-02-24T02:17:58;7.75;;;2.00;;
1721;SDS011;858;53.190;8.596;2023-02-24T02:26:06;8.32;;;2.30;;
1721;SDS011;858;53.190;8.596;2023-02-24T02:28:38;6.40;;;2.00;;
1721;SDS011;858;53.190;8.596;2023-02-24T02:36:32;7.65;;;2.00;;
1721;SDS011;858;53.190;8.596;2023-02-24T02:39:03;5.90;;;2.10;;
1721;SDS011;858;53.190;8.596;2023-02-24T02:41:33;7.28;;;2.75;;
1721;SDS011;858;53.190;8.596;2023-02-24T02:44:02;7.18;;;1.92;;
1721;SDS011;858;53.190;8.596;2023-02-24T02:46:32;9.60;;;2.00;;
1721;SDS011;858;53.190;8.596;2023-02-24T02:49:01;8.18;;;2.10;;
1721;SDS011;858;53.190;8.596;2023-02-24T02:51:32;7.03;;;2.17;;
1721;SDS011;858;53.190;8.596;2023-02-24T02:54:03;8.82;;;2.00;;
1721;SDS011;858;53.190;8.596;2023-02-24T02:56:32;6.22;;;2.30;;
1721;SDS011;858;53.190;8.596;2023-02-24T02:59:02;6.88;;;2.45;;
1721;SDS011;858;53.190;8.596;2023-02-24T03:01:30;10.00;;;2.38;;
1721;SDS011;858;53.190;8.596;2023-02-24T03:03:59;6.30;;;2.35;;
1721;SDS011;858;53.190;8.596;2023-02-24T03:06:30;7.07;;;2.15;;
1721;SDS011;858;53.190;8.596;2023-02-24T03:09:01;8.27;;;2.70;;
1721;SDS011;858;53.190;8.596;2023-02-24T03:11:36;8.50;;;2.47;;
1721;SDS011;858;53.190;8.596;2023-02-24T03:14:03;9.00;;;2.55;;
1721;SDS011;858;53.190;8.596;2023-02-24T03:16:30;10.20;;;2.80;;
1721;SDS011;858;53.190;8.596;2023-02-24T03:18:58;8.60;;;2.65;;
1721;SDS011;858;53.190;8.596;2023-02-24T03:21:26;11.88;;;2.90;;
1721;SDS011;858;53.190;8.596;2023-02-24T03:23:57;6.85;;;2.03;;
1721;SDS011;858;53.190;8.596;2023-02-24T03:26:26;10.18;;;2.53;;
1721;SDS011;858;53.190;8.596;2023-02-24T03:28:55;8.13;;;2.10;;
1721;SDS011;858;53.190;8.596;2023-02-24T03:31:24;8.25;;;2.38;;
1721;SDS011;858;53.190;8.596;2023-02-24T03:33:55;7.15;;;2.30;;
1721;SDS011;858;53.190;8.596;2023-02-24T03:36:24;11.40;;;2.20;;
1721;SDS011;858;53.190;8.596;2023-02-24T03:38:50;6.32;;;1.85;;
1721;SDS011;858;53.190;8.596;2023-02-24T03:41:17;5.97;;;2.40;;
1721;SDS011;858;53.190;8.596;2023-02-24T03:43:45;5.47;;;1.75;;
1721;SDS011;858;53.190;8.596;2023-02-24T03:46:14;10.90;;;3.10;;
1721;SDS011;858;53.190;8.596;2023-02-24T03:48:41;11.90;;;3.10;;
1721;SDS011;858;53.190;8.596;2023-02-24T03:51:12;8.95;;;2.35;;
1721;SDS011;858;53.190;8.596;2023-02-24T03:53:41;7.00;;;3.00;;
1721;SDS011;858;53.190;8.596;2023-02-24T03:56:14;6.90;;;2.33;;
1721;SDS011;858;53.190;8.596;2023-02-24T03:58:50;7.47;;;2.75;;
1721;SDS011;858;53.190;8.596;2023-02-24T04:01:21;7.87;;;2.90;;
1721;SDS011;858;53.190;8.596;2023-02-24T04:03:51;9.13;;;2.42;;
1721;SDS011;858;53.190;8.596;2023-02-24T04:06:24;6.90;;;3.45;;
1721;SDS011;858;53.190;8.596;2023-02-24T04:08:53;7.93;;;2.40;;
1721;SDS011;858;53.190;8.596;2023-02-24T04:11:26;8.57;;;2.50;;
1721;SDS011;858;53.190;8.596;2023-02-24T04:13:58;11.68;;;3.00;;
1721;SDS011;858;53.190;8.596;2023-02-24T04:16:29;5.30;;;1.90;;
1721;SDS011;858;53.190;8.596;2023-02-24T04:19:01;7.95;;;2.72;;
1721;SDS011;858;53.190;8.596;2023-02-24T04:21:29;6.68;;;2.00;;
1721;SDS011;858;53.190;8.596;2023-02-24T04:23:56;7.47;;;2.60;;
1721;SDS011;858;53.190;8.596;2023-02-24T04:26:24;6.82;;;2.67;;
1721;SDS011;858;53.190;8.596;2023-02-24T04:28:52;4.47;;;2.45;;
1721;SDS011;858;53.190;8.596;2023-02-24T04:31:21;7.68;;;1.73;;
1721;SDS011;858;53.190;8.596;2023-02-24T04:33:51;6.20;;;2.00;;
1721;SDS011;858;53.190;8.596;2023-02-24T04:36:18;8.18;;;2.30;;
1721;SDS011;858;53.190;8.596;2023-02-24T04:38:45;7.15;;;2.20;;
1721;SDS011;858;53.190;8.596;2023-02-24T04:41:12;5.32;;;2.10;;
1721;SDS011;858;53.190;8.596;2023-02-24T04:43:44;6.95;;;2.28;;
1721;SDS011;858;53.190;8.596;2023-02-24T04:46:11;12.85;;;2.55;;
1721;SDS011;858;53.190;8.596;2023-02-24T04:48:39;6.50;;;2.70;;
1721;SDS011;858;53.190;8.596;2023-02-24T04:51:05;5.75;;;2.67;;
1721;SDS011;858;53.190;8.596;2023-02-24T04:53:31;10.43;;;2.40;;
1721;SDS011;858;53.190;8.596;2023-02-24T04:56:02;12.20;;;2.65;;
1721;SDS011;858;53.190;8.596;2023-02-24T04:58:33;8.73;;;2.40;;
1721;SDS011;858;53.190;8.596;2023-02-24T05:01:05;7.53;;;2.10;;
1721;SDS011;858;53.190;8.596;2023-02-24T05:03:32;5.87;;;1.83;;
1721;SDS011;858;53.190;8.596;2023-02-24T05:06:02;7.03;;;2.30;;
1721;SDS011;858;53.190;8.596;2023-02-24T05:08:31;6.90;;;2.40;;
1721;SDS011;858;53.190;8.596;2023-02-24T05:10:58;5.50;;;1.80;;
1721;SDS011;858;53.190;8.596;2023-02-24T05:13:28;10.73;;;2.20;;
1721;SDS011;858;53.190;8.596;2023-02-24T05:15:56;6.35;;;1.90;;
1721;SDS011;858;53.190;8.596;2023-02-24T05:18:23;11.93;;;2.40;;
1721;SDS011;858;53.190;8.596;2023-02-24T05:20:50;11.77;;;2.67;;
1721;SDS011;858;53.190;8.596;2023-02-24T05:23:36;9.10;;;3.38;;
1721;SDS011;858;53.190;8.596;2023-02-24T05:26:04;6.27;;;2.47;;
1721;SDS011;858;53.190;8.596;2023-02-24T05:28:33;5.97;;;2.30;;
1721;SDS011;858;53.190;8.596;2023-02-24T05:31:02;12.02;;;2.42;;
1721;SDS011;858;53.190;8.596;2023-02-24T05:33:29;8.70;;;2.25;;
1721;SDS011;858;53.190;8.596;2023-02-24T05:36:00;7.93;;;2.50;;
1721;SDS011;858;53.190;8.596;2023-02-24T05:38:29;7.67;;;2.10;;
1721;SDS011;858;53.190;8.596;2023-02-24T05:41:02;10.60;;;2.55;;
1721;SDS011;858;53.190;8.596;2023-02-24T05:43:28;9.18;;;3.00;;
1721;SDS011;858;53.190;8.596;2023-02-24T05:45:58;5.90;;;2.40;;
1721;SDS011;858;53.190;8.596;2023-02-24T05:48:27;6.47;;;2.60;;
1721;SDS011;858;53.190;8.596;2023-02-24T05:50:53;6.10;;;2.30;;
1721;SDS011;858;53.190;8.596;2023-02-24T05:53:20;8.60;;;2.63;;
1721;SDS011;858;53.190;8.596;2023-02-24T05:55:47;9.73;;;2.30;;
1721;SDS011;858;53.190;8.596;2023-02-24T05:58:15;5.80;;;2.55;;
1721;SDS011;858;53.190;8.596;2023-02-24T06:00:41;13.55;;;2.70;;
1721;SDS011;858;53.190;8.596;2023-02-24T06:03:10;13.85;;;3.45;;
1721;SDS011;858;53.190;8.596;2023-02-24T06:05:41;9.85;;;2.78;;
1721;SDS011;858;53.190;8.596;2023-02-24T06:08:08;9.20;;;2.13;;
1721;SDS011;858;53.190;8.596;2023-02-24T06:10:36;9.47;;;2.30;;
1721;SDS011;858;53.190;8.596;2023-02-24T06:13:04;7.10;;;2.33;;
1721;SDS011;858;53.190;8.596;2023-02-24T06:15:32;10.03;;;2.47;;
1721;SDS011;858;53.190;8.596;2023-02-24T06:17:59;6.57;;;1.80;;
1721;SDS011;858;53.190;8.596;2023-02-24T06:20:26;11.00;;;2.50;;
1721;SDS011;858;53.190;8.596;2023-02-24T06:22:53;7.82;;;2.40;;
1721;SDS011;858;53.190;8.596;2023-02-24T06:25:22;5.43;;;2.10;;
1721;SDS011;858;53.190;8.596;2023-02-24T06:27:49;8.32;;;2.60;;
1721;SDS011;858;53.190;8.596;2023-02-24T06:30:21;8.27;;;2.28;;
1721;SDS011;858;53.190;8.596;2023-02-24T06:32:50;9.60;;;2.70;;
1721;SDS011;858;53.190;8.596;2023-02-24T06:35:16;7.85;;;2.70;;
1721;SDS011;858;53.190;8.596;2023-02-24T06:37:43;12.03;;;2.80;;
1721;SDS011;858;53.190;8.596;2023-02-24T06:40:10;10.18;;;2.58;;
1721;SDS011;858;53.190;8.596;2023-02-24T06:42:42;6.88;;;1.90;;
1721;SDS011;858;53.190;8.596;2023-02-24T06:45:09;9.23;;;2.40;;
1721;SDS011;858;53.190;8.596;2023-02-24T06:47:35;7.10;;;2.40;;
1721;SDS011;858;53.190;8.596;2023-02-24T06:50:04;6.05;;;2.78;;
1721;SDS011;858;53.190;8.596;2023-02-24T06:52:31;8.47;;;2.43;;
1721;SDS011;858;53.190;8.596;2023-02-24T06:54:58;7.40;;;2.60;;
1721;SDS011;858;53.190;8.596;2023-02-24T06:57:28;7.20;;;2.60;;
1721;SDS011;858;53.190;8.596;2023-02-24T06:59:56;8.00;;;2.20;;
1721;SDS011;858;53.190;8.596;2023-02-24T07:02:23;7.93;;;3.17;;
1721;SDS011;858;53.190;8.596;2023-02-24T07:04:57;10.65;;;3.40;;
1721;SDS011;858;53.190;8.596;2023-02-24T07:07:25;11.77;;;2.60;;
1721;SDS011;858;53.190;8.596;2023-02-24T07:09:53;9.80;;;2.70;;
1721;SDS011;858;53.190;8.596;2023-02-24T07:12:19;7.40;;;2.85;;
1721;SDS011;858;53.190;8.596;2023-02-24T07:14:46;10.33;;;2.50;;
1721;SDS011;858;53.190;8.596;2023-02-24T07:17:15;9.93;;;2.47;;
1721;SDS011;858;53.190;8.596;2023-02-24T07:19:43;10.10;;;2.80;;
1721;SDS011;858;53.190;8.596;2023-02-24T07:22:10;6.83;;;2.20;;
1721;SDS011;858;53.190;8.596;2023-02-24T07:24:40;9.93;;;2.97;;
1721;SDS011;858;53.190;8.596;2023-02-24T07:27:11;6.55;;;2.22;;
1721;SDS011;858;53.190;8.596;2023-02-24T07:29:46;8.60;;;2.70;;
1721;SDS011;858;53.190;8.596;2023-02-24T07:32:13;9.90;;;2.30;;
1721;SDS011;858;53.190;8.596;2023-02-24T07:34:40;12.32;;;3.35;;
1721;SDS011;858;53.190;8.596;2023-02-24T07:37:06;6.40;;;2.70;;
1721;SDS011;858;53.190;8.596;2023-02-24T07:39:33;7.60;;;2.40;;
1721;SDS011;858;53.190;8.596;2023-02-24T07:42:02;6.40;;;2.30;;
1721;SDS011;858;53.190;8.596;2023-02-24T07:44:28;10.77;;;2.50;;
1721;SDS011;858;53.190;8.596;2023-02-24T07:46:55;7.18;;;2.42;;
1721;SDS011;858;53.190;8.596;2023-02-24T07:49:23;10.60;;;2.90;;
1721;SDS011;858;53.190;8.596;2023-02-24T07:51:50;9.65;;;2.90;;
1721;SDS011;858;53.190;8.596;2023-02-24T07:54:19;10.98;;;2.70;;
1721;SDS011;858;53.190;8.596;2023-02-24T07:56:47;7.57;;;2.85;;
1721;SDS011;858;53.190;8.596;2023-02-24T07:59:22;8.07;;;2.70;;
1721;SDS011;858;53.190;8.596;2023-02-24T08:01:49;11.80;;;3.38;;
1721;SDS011;858;53.190;8.596;2023-02-24T08:04:19;13.40;;;3.38;;
1721;SDS011;858;53.190;8.596;2023-02-24T08:06:47;7.35;;;3.10;;
1721;SDS011;858;53.190;8.596;2023-02-24T08:09:19;6.88;;;3.00;;
1721;SDS011;858;53.190;8.596;2023-02-24T08:12:06;10.23;;;3.05;;
1721;SDS011;858;53.190;8.596;2023-02-24T08:14:34;6.22;;;3.00;;
1721;SDS011;858;53.190;8.596;2023-02-24T08:17:08;7.38;;;2.80;;
1721;SDS011;858;53.190;8.596;2023-02-24T08:19:36;12.85;;;3.45;;
1721;SDS011;858;53.190;8.596;2023-02-24T08:22:06;6.55;;;3.00;;
1721;SDS011;858;53.190;8.596;2023-02-24T08:24:44;9.40;;;3.63;;
1721;SDS011;858;53.190;8.596;2023-02-24T08:27:14;7.60;;;3.60;;
1721;SDS011;858;53.190;8.596;2023-02-24T08:29:46;10.88;;;3.40;;
1721;SDS011;858;53.190;8.596;2023-02-24T08:32:23;10.20;;;3.33;;
1721;SDS011;858;53.190;8.596;2023-02-24T08:34:49;7.30;;;3.08;;
1721;SDS011;858;53.190;8.596;2023-02-24T08:37:21;12.05;;;3.83;;
1721;SDS011;858;53.190;8.596;2023-02-24T08:39:47;8.32;;;3.60;;
1721;SDS011;858;53.190;8.596;2023-02-24T08:42:18;22.95;;;16.77;;
1721;SDS011;858;53.190;8.596;2023-02-24T08:44:46;17.77;;;9.40;;
1721;SDS011;858;53.190;8.596;2023-02-24T08:47:14;8.15;;;4.18;;
1721;SDS011;858;53.190;8.596;2023-02-24T08:49:45;12.00;;;6.50;;
1721;SDS011;858;53.190;8.596;2023-02-24T08:52:13;10.18;;;6.55;;
1721;SDS011;858;53.190;8.596;2023-02-24T08:54:39;9.15;;;4.25;;
1721;SDS011;858;53.190;8.596;2023-02-24T08:57:12;11.27;;;4.55;;
1721;SDS011;858;53.190;8.596;2023-02-24T08:59:39;10.68;;;5.30;;
1721;SDS011;858;53.190;8.596;2023-02-24T09:02:17;8.65;;;5.10;;
1721;SDS011;858;53.190;8.596;2023-02-24T09:04:49;12.40;;;5.50;;
1721;SDS011;858;53.190;8.596;2023-02-24T09:07:17;8.30;;;4.20;;
1721;SDS011;858;53.190;8.596;2023-02-24T09:09:44;8.95;;;4.88;;
1721;SDS011;858;53.190;8.596;2023-02-24T09:12:11;7.45;;;4.72;;
1721;SDS011;858;53.190;8.596;2023-02-24T09:14:46;10.65;;;5.40;;
1721;SDS011;858;53.190;8.596;2023-02-24T09:17:14;9.98;;;4.95;;
1721;SDS011;858;53.190;8.596;2023-02-24T09:19:45;8.90;;;5.15;;
1721;SDS011;858;53.190;8.596;2023-02-24T09:22:30;9.05;;;5.13;;
1721;SDS011;858;53.190;8.596;2023-02-24T09:25:05;10.00;;;6.40;;
1721;SDS011;858;53.190;8.596;2023-02-24T09:27:46;12.98;;;6.32;;
1721;SDS011;858;53.190;8.596;2023-02-24T09:30:16;9.63;;;6.55;;
1721;SDS011;858;53.190;8.596;2023-02-24T09:33:06;7.22;;;4.55;;
1721;SDS011;858;53.190;8.596;2023-02-24T09:35:41;11.45;;;5.53;;
1721;SDS011;858;53.190;8.596;2023-02-24T09:38:10;11.02;;;6.25;;
1721;SDS011;858;53.190;8.596;2023-02-24T09:40:42;8.57;;;5.63;;
1721;SDS011;858;53.190;8.596;2023-02-24T09:43:17;8.73;;;5.63;;
1721;SDS011;858;53.190;8.596;2023-02-24T09:45:50;12.32;;;5.80;;
1721;SDS011;858;53.190;8.596;2023-02-24T09:48:22;12.68;;;5.78;;
1721;SDS011;858;53.190;8.596;2023-02-24T09:50:51;10.07;;;5.80;;
1721;SDS011;858;53.190;8.596;2023-02-24T09:53:29;13.30;;;6.45;;
1721;SDS011;858;53.190;8.596;2023-02-24T09:56:08;10.20;;;5.68;;
1721;SDS011;858;53.190;8.596;2023-02-24T09:58:38;8.30;;;5.60;;
1721;SDS011;858;53.190;8.596;2023-02-24T10:01:16;12.18;;;6.20;;
1721;SDS011;858;53.190;8.596;2023-02-24T10:03:50;13.52;;;10.23;;
1721;SDS011;858;53.190;8.596;2023-02-24T10:06:28;13.15;;;9.23;;
1721;SDS011;858;53.190;8.596;2023-02-24T10:09:00;7.57;;;6.18;;
1721;SDS011;858;53.190;8.596;2023-02-24T10:11:35;14.80;;;11.25;;
1721;SDS011;858;53.190;8.596;2023-02-24T10:14:03;10.07;;;6.85;;
1721;SDS011;858;53.190;8.596;2023-02-24T10:16:31;9.90;;;6.05;;
1721;SDS011;858;53.190;8.596;2023-02-24T10:19:13;10.38;;;6.20;;
1721;SDS011;858;53.190;8.596;2023-02-24T10:21:44;9.18;;;6.13;;
1721;SDS011;858;53.190;8.596;2023-02-24T10:24:28;8.18;;;7.28;;
1721;SDS011;858;53.190;8.596;2023-02-24T10:27:00;13.40;;;6.97;;
1721;SDS011;858;53.190;8.596;2023-02-24T10:29:36;14.43;;;8.50;;
1721;SDS011;858;53.190;8.596;2023-02-24T10:32:06;12.00;;;7.25;;
1721;SDS011;858;53.190;8.596;2023-02-24T10:34:42;12.30;;;7.30;;
1721;SDS011;858;53.190;8.596;2023-02-24T10:37:11;9.07;;;7.00;;
1721;SDS011;858;53.190;8.596;2023-02-24T10:39:38;11.02;;;6.78;;
1721;SDS011;858;53.190;8.596;2023-02-24T10:42:08;14.98;;;11.48;;
1721;SDS011;858;53.190;8.596;2023-02-24T10:44:40;9.48;;;7.90;;
1721;SDS011;858;53.190;8.596;2023-02-24T10:47:16;10.57;;;8.30;;
1721;SDS011;858;53.190;8.596;2023-02-24T10:49:45;14.05;;;11.13;;
1721;SDS011;858;53.190;8.596;2023-02-24T10:52:22;11.50;;;8.43;;
1721;SDS011;858;53.190;8.596;2023-02-24T10:55:02;11.23;;;9.05;;
1721;SDS011;858;53.190;8.596;2023-02-24T10:57:52;12.68;;;8.23;;
1721;SDS011;858;53.190;8.596;2023-02-24T11:00:35;10.77;;;7.88;;
1721;SDS011;858;53.190;8.596;2023-02-24T11:03:16;14.55;;;9.80;;
1721;SDS011;858;53.190;8.596;2023-02-24T11:06:01;11.95;;;9.60;;
1721;SDS011;858;53.190;8.596;2023-02-24T11:08:55;9.45;;;7.30;;
1721;SDS011;858;53.190;8.596;2023-02-24T11:11:42;13.10;;;9.15;;
1721;SDS011;858;53.190;8.596;2023-02-24T11:14:22;12.50;;;9.60;;
1721;SDS011;858;53.190;8.596;2023-02-24T11:17:16;11.73;;;9.10;;
1721;SDS011;858;53.190;8.596;2023-02-24T11:19:46;12.45;;;7.97;;
1721;SDS011;858;53.190;8.596;2023-02-24T11:22:16;10.30;;;6.93;;
1721;SDS011;858;53.190;8.596;2023-02-24T11:24:43;10.77;;;7.05;;
1721;SDS011;858;53.190;8.596;2023-02-24T11:27:10;11.48;;;7.45;;
1721;SDS011;858;53.190;8.596;2023-02-24T11:29:41;9.10;;;7.00;;
1721;SDS011;858;53.190;8.596;2023-02-24T11:32:20;11.77;;;7.55;;
1721;SDS011;858;53.190;8.596;2023-02-24T11:34:50;10.38;;;6.97;;
1721;SDS011;858;53.190;8.596;2023-02-24T11:37:22;12.98;;;7.93;;
1721;SDS011;858;53.190;8.596;2023-02-24T11:39:52;12.15;;;7.95;;
1721;SDS011;858;53.190;8.596;2023-02-24T11:42:21;8.98;;;7.18;;
1721;SDS011;858;53.190;8.596;2023-02-24T11:44:50;10.00;;;7.40;;
1721;SDS011;858;53.190;8.596;2023-02-24T11:47:19;11.23;;;7.68;;
1721;SDS011;858;53.190;8.596;2023-02-24T11:49:47;9.50;;;7.40;;
1721;SDS011;858;53.190;8.596;2023-02-24T11:52:17;10.45;;;8.02;;
1721;SDS011;858;53.190;8.596;2023-02-24T11:54:47;9.85;;;7.45;;
1721;SDS011;858;53.190;8.596;2023-02-24T11:57:15;13.25;;;7.35;;
1721;SDS011;858;53.190;8.596;2023-02-24T11:59:43;8.80;;;7.25;;
1721;SDS011;858;53.190;8.596;2023-02-24T12:02:13;10.43;;;7.43;;
1721;SDS011;858;53.190;8.596;2023-02-24T12:04:43;12.15;;;8.27;;
1721;SDS011;858;53.190;8.596;2023-02-24T12:07:13;10.13;;;7.10;;
1721;SDS011;858;53.190;8.596;2023-02-24T12:09:44;11.27;;;7.60;;
1721;SDS011;858;53.190;8.596;2023-02-24T12:12:15;10.02;;;7.68;;
1721;SDS011;858;53.190;8.596;2023-02-24T12:14:44;11.80;;;8.50;;
1721;SDS011;858;53.190;8.596;2023-02-24T12:17:14;9.02;;;7.28;;
1721;SDS011;858;53.190;8.596;2023-02-24T12:19:47;11.27;;;8.30;;
1721;SDS011;858;53.190;8.596;2023-02-24T12:22:16;9.82;;;7.50;;
1721;SDS011;858;53.190;8.596;2023-02-24T12:24:44;11.60;;;7.40;;
1721;SDS011;858;53.190;8.596;2023-02-24T12:27:16;13.73;;;8.40;;
1721;SDS011;858;53.190;8.596;2023-02-24T12:29:49;17.88;;;10.20;;
1721;SDS011;858;53.190;8.596;2023-02-24T12:32:19;13.70;;;11.02;;
1721;SDS011;858;53.190;8.596;2023-02-24T12:34:51;11.02;;;8.10;;
1721;SDS011;858;53.190;8.596;2023-02-24T12:37:24;10.98;;;7.97;;
1721;SDS011;858;53.190;8.596;2023-02-24T12:39:57;12.80;;;8.53;;
1721;SDS011;858;53.190;8.596;2023-02-24T12:42:31;11.80;;;8.60;;
1721;SDS011;858;53.190;8.596;2023-02-24T12:45:03;11.35;;;7.68;;
1721;SDS011;858;53.190;8.596;2023-02-24T12:47:37;11.15;;;8.50;;
1721;SDS011;858;53.190;8.596;2023-02-24T12:50:11;12.82;;;7.18;;
1721;SDS011;858;53.190;8.596;2023-02-24T12:52:43;13.38;;;7.50;;
1721;SDS011;858;53.190;8.596;2023-02-24T12:55:12;20.50;;;12.07;;
1721;SDS011;858;53.190;8.596;2023-02-24T12:57:45;18.07;;;9.80;;
1721;SDS011;858;53.190;8.596;2023-02-24T13:00:15;17.65;;;9.88;;
1721;SDS011;858;53.190;8.596;2023-02-24T13:02:46;12.83;;;6.30;;
1721;SDS011;858;53.190;8.596;2023-02-24T13:05:18;7.67;;;4.33;;
1721;SDS011;858;53.190;8.596;2023-02-24T13:07:49;7.32;;;3.95;;
1721;SDS011;858;53.190;8.596;2023-02-24T13:10:21;6.97;;;3.60;;
1721;SDS011;858;53.190;8.596;2023-02-24T13:12:52;9.10;;;3.40;;
1721;SDS011;858;53.190;8.596;2023-02-24T13:15:24;4.70;;;2.80;;
1721;SDS011;858;53.190;8.596;2023-02-24T13:17:52;8.73;;;3.53;;
1721;SDS011;858;53.190;8.596;2023-02-24T13:20:26;12.30;;;5.45;;
1721;SDS011;858;53.190;8.596;2023-02-24T13:22:52;9.85;;;4.40;;
1721;SDS011;858;53.190;8.596;2023-02-24T13:25:20;11.73;;;6.80;;
1721;SDS011;858;53.190;8.596;2023-02-24T13:27:56;13.23;;;5.88;;
1721;SDS011;858;53.190;8.596;2023-02-24T13:30:28;17.13;;;7.30;;
1721;SDS011;858;53.190;8.596;2023-02-24T13:33:00;12.90;;;4.88;;
1721;SDS011;858;53.190;8.596;2023-02-24T13:35:28;11.60;;;2.97;;
1721;SDS011;858;53.190;8.596;2023-02-24T13:38:05;14.38;;;3.47;;
1721;SDS011;858;53.190;8.596;2023-02-24T13:40:32;6.80;;;2.63;;
1721;SDS011;858;53.190;8.596;2023-02-24T13:43:00;7.00;;;2.00;;
1721;SDS011;858;53.190;8.596;2023-02-24T13:45:29;6.07;;;2.10;;
1721;SDS011;858;53.190;8.596;2023-02-24T13:48:05;7.85;;;2.50;;
1721;SDS011;858;53.190;8.596;2023-02-24T13:50:35;6.18;;;1.80;;
1721;SDS011;858;53.190;8.596;2023-02-24T13:53:07;7.38;;;2.20;;
1721;SDS011;858;53.190;8.596;2023-02-24T13:55:45;8.45;;;2.60;;
1721;SDS011;858;53.190;8.596;2023-02-24T13:58:21;12.10;;;3.05;;
1721;SDS011;858;53.190;8.596;2023-02-24T14:00:59;13.07;;;3.10;;
1721;SDS011;858;53.190;8.596;2023-02-24T14:03:27;14.32;;;3.90;;
1721;SDS011;858;53.190;8.596;2023-02-24T14:05:55;16.08;;;4.03;;
1721;SDS011;858;53.190;8.596;2023-02-24T14:08:24;12.00;;;3.60;;
1721;SDS011;858;53.190;8.596;2023-02-24T14:10:53;17.27;;;3.87;;
1721;SDS011;858;53.190;8.596;2023-02-24T14:13:23;18.20;;;3.78;;
1721;SDS011;858;53.190;8.596;2023-02-24T14:15:52;16.45;;;4.32;;
1721;SDS011;858;53.190;8.596;2023-02-24T14:18:19;19.50;;;3.70;;
1721;SDS011;858;53.190;8.596;2023-02-24T14:20:46;14.77;;;3.30;;
1721;SDS011;858;53.190;8.596;2023-02-24T14:23:19;11.48;;;2.53;;
1721;SDS011;858;53.190;8.596;2023-02-24T14:25:46;12.55;;;2.60;;
1721;SDS011;858;53.190;8.596;2023-02-24T14:28:13;8.02;;;2.63;;
1721;SDS011;858;53.190;8.596;2023-02-24T14:30:42;8.93;;;2.25;;
1721;SDS011;858;53.190;8.596;2023-02-24T14:33:16;7.95;;;2.30;;
1721;SDS011;858;53.190;8.596;2023-02-24T14:35:46;8.88;;;2.25;;
1721;SDS011;858;53.190;8.596;2023-02-24T14:38:25;8.25;;;2.40;;
1721;SDS011;858;53.190;8.596;2023-02-24T14:40:52;5.65;;;1.67;;
1721;SDS011;858;53.190;8.596;2023-02-24T14:43:18;4.35;;;1.40;;
1721;SDS011;858;53.190;8.596;2023-02-24T14:45:48;3.40;;;1.10;;
1721;SDS011;858;53.190;8.596;2023-02-24T14:48:19;4.55;;;1.27;;
1721;SDS011;858;53.190;8.596;2023-02-24T14:50:45;5.63;;;1.20;;
1721;SDS011;858;53.190;8.596;2023-02-24T14:53:13;4.95;;;1.10;;
1721;SDS011;858;53.190;8.596;2023-02-24T14:55:41;3.10;;;0.98;;
1721;SDS011;858;53.190;8.596;2023-02-24T14:58:12;3.65;;;1.10;;
1721;SDS011;858;53.190;8.596;2023-02-24T15:00:40;5.65;;;1.20;;
1721;SDS011;858;53.190;8.596;2023-02-24T15:03:11;3.72;;;0.95;;
1721;SDS011;858;53.190;8.596;2023-02-24T15:05:39;3.00;;;1.10;;
1721;SDS011;858;53.190;8.596;2023-02-24T15:08:15;5.40;;;1.30;;
1721;SDS011;858;53.190;8.596;2023-02-24T15:10:45;2.63;;;1.00;;
1721;SDS011;858;53.190;8.596;2023-02-24T15:13:15;4.57;;;1.10;;
1721;SDS011;858;53.190;8.596;2023-02-24T15:15:43;6.35;;;1.50;;
1721;SDS011;858;53.190;8.596;2023-02-24T15:18:15;5.38;;;1.40;;
1721;SDS011;858;53.190;8.596;2023-02-24T15:20:45;2.67;;;0.90;;
1721;SDS011;858;53.190;8.596;2023-02-24T15:23:24;3.57;;;1.00;;
1721;SDS011;858;53.190;8.596;2023-02-24T15:25:51;3.20;;;1.30;;
1721;SDS011;858;53.190;8.596;2023-02-24T15:28:21;2.22;;;0.80;;
1721;SDS011;858;53.190;8.596;2023-02-24T15:30:53;1.52;;;0.88;;
1721;SDS011;858;53.190;8.596;2023-02-24T15:33:23;3.50;;;1.00;;
1721;SDS011;858;53.190;8.596;2023-02-24T15:35:51;4.77;;;1.37;;
1721;SDS011;858;53.190;8.596;2023-02-24T15:38:19;4.65;;;1.20;;
1721;SDS011;858;53.190;8.596;2023-02-24T15:40:49;8.27;;;1.63;;
1721;SDS011;858;53.190;8.596;2023-02-24T15:43:16;4.40;;;1.67;;
1721;SDS011;858;53.190;8.596;2023-02-24T15:45:46;7.97;;;1.75;;
1721;SDS011;858;53.190;8.596;2023-02-24T15:48:23;3.50;;;1.50;;
1721;SDS011;858;53.190;8.596;2023-02-24T15:50:52;9.73;;;1.80;;
1721;SDS011;858;53.190;8.596;2023-02-24T15:53:19;6.60;;;1.45;;
1721;SDS011;858;53.190;8.596;2023-02-24T15:55:46;7.55;;;1.63;;